HALF-HOURLY OBSERVATIONS INDEX

076

Mallee - north

MILDURA AIRPORT

Site: 076031
Alt: 50.0m
8km SW of MILDURA


  Time     Wind        Temp  DP   Baro     Rain since   Rain past  Vis(m), Cloud(base in m), Weather
  local        km/h                         9am  last   hr   10m    
Mon 11:00    S 15/ 24  23.0 10.1  1017.7    0.0   0.0   0.0   0.0   10000 
Mon 11:30   SE 15/ 24  24.2  9.8  1017.7    0.0   0.0   0.0   0.0   10000 
Mon 12:00  SSE 13/ 22  25.3  9.6  1017.5    0.0   0.0   0.0   0.0   10000 
Mon 12:30    S 13/ 24  27.5  9.3  1017.3    0.0   0.0   0.0   0.0   10000 
Mon 13:00   SE 13/ 22  26.6  9.0  1016.9    0.0   0.0   0.0   0.0   10000 
Mon 13:30   SE 13/ 19  28.0  7.8  1016.4    0.0   0.0   0.0   0.0   10000 
Mon 14:00    S  9/ 17  29.2  6.6  1016.3    0.0   0.0   0.0   0.0   10000 
Mon 14:30    S 11/ 19  29.7  4.4  1015.8    0.0   0.0   0.0   0.0   10000 
Mon 15:00   SE 13/ 22  30.1  3.2  1015.4    0.0   0.0   0.0   0.0   10000 
Mon 15:30  SSE 11/ 19  30.8  3.0  1015.0    0.0   0.0   0.0   0.0   10000 
Mon 16:00    S  9/ 17  31.9  1.1  1014.6    0.0   0.0   0.0   0.0   10000 
Mon 16:30    S 13/ 20  31.8  1.0  1014.2    0.0   0.0   0.0   0.0   10000 

WALPEUP RESEARCH

Site: 076064
Alt: 105.0m
104km S of MILDURA


  Time     Wind        Temp  DP   Baro     Rain since   Rain past  Vis(m), Cloud(base in m), Weather
  local        km/h                         9am  last   hr   10m    
Mon 11:00  SSE 13/ 19  23.1 12.7  ------    0.0   0.0   0.0   0.0   ----- 
Mon 11:30  SSE 11/ 20  23.4 12.1  ------    0.0   0.0   0.0   0.0   ----- 
Mon 12:00  SSE 17/ 24  24.6 11.9  ------    0.0   0.0   0.0   0.0   ----- 
Mon 12:30   SE  9/ 20  25.9 11.6  ------    0.0   0.0   0.0   0.0   ----- 
Mon 13:00    S 13/ 22  26.1 11.8  ------    0.0   0.0   0.0   0.0   ----- 
Mon 13:30  SSE  7/ 19  28.0 12.0  ------    0.0   0.0   0.0   0.0   ----- 
Mon 14:00   SE 13/ 30  28.1 11.2  ------    0.0   0.0   0.0   0.0   ----- 
Mon 14:30    S 17/ 26  28.9 11.5  ------    0.0   0.0   0.0   0.0   ----- 
Mon 15:00  SSE 11/ 20  29.4 11.0  ------    0.0   0.0   0.0   0.0   ----- 
Mon 15:30  SSE  7/ 11  28.9 11.0  ------    0.0   0.0   0.0   0.0   ----- 
Mon 16:00  SSW  7/ 15  29.1 10.7  ------    0.0   0.0   0.0   0.0   ----- 
Mon 16:30    S  7/ 20  30.0 10.5  ------    0.0   0.0   0.0   0.0   -----